sensor_id;sensor_type;location;lat;lon;timestamp;temperature;humidity
80937;DHT22;70395;51.382;7.074;2023-12-14T00:01:25;11.10;74.30
80937;DHT22;70395;51.382;7.074;2023-12-14T00:03:50;11.10;74.30
80937;DHT22;70395;51.382;7.074;2023-12-14T00:06:16;11.10;74.30
80937;DHT22;70395;51.382;7.074;2023-12-14T00:08:42;11.10;74.20
80937;DHT22;70395;51.382;7.074;2023-12-14T00:11:10;11.10;74.30
80937;DHT22;70395;51.382;7.074;2023-12-14T00:13:37;11.10;75.00
80937;DHT22;70395;51.382;7.074;2023-12-14T00:16:04;11.00;74.20
80937;DHT22;70395;51.382;7.074;2023-12-14T00:18:30;11.00;74.20
80937;DHT22;70395;51.382;7.074;2023-12-14T00:20:56;11.00;74.20
80937;DHT22;70395;51.382;7.074;2023-12-14T00:23:25;11.00;74.20
80937;DHT22;70395;51.382;7.074;2023-12-14T00:25:51;11.00;74.00
80937;DHT22;70395;51.382;7.074;2023-12-14T00:28:17;11.00;74.00
80937;DHT22;70395;51.382;7.074;2023-12-14T00:30:43;11.00;73.90
80937;DHT22;70395;51.382;7.074;2023-12-14T00:33:08;11.00;74.60
80937;DHT22;70395;51.382;7.074;2023-12-14T00:35:34;11.00;73.80
80937;DHT22;70395;51.382;7.074;2023-12-14T00:38:00;11.00;73.80
80937;DHT22;70395;51.382;7.074;2023-12-14T00:40:26;11.00;73.70
80937;DHT22;70395;51.382;7.074;2023-12-14T00:42:52;11.00;73.50
80937;DHT22;70395;51.382;7.074;2023-12-14T00:45:18;11.00;73.50
80937;DHT22;70395;51.382;7.074;2023-12-14T00:47:43;10.90;73.40
80937;DHT22;70395;51.382;7.074;2023-12-14T00:50:09;10.90;73.50
80937;DHT22;70395;51.382;7.074;2023-12-14T00:52:35;10.90;73.60
80937;DHT22;70395;51.382;7.074;2023-12-14T00:55:01;10.90;73.60
80937;DHT22;70395;51.382;7.074;2023-12-14T00:57:27;10.90;73.40
80937;DHT22;70395;51.382;7.074;2023-12-14T00:59:53;10.90;73.30
80937;DHT22;70395;51.382;7.074;2023-12-14T01:02:19;10.80;73.20
80937;DHT22;70395;51.382;7.074;2023-12-14T01:04:45;10.80;73.20
80937;DHT22;70395;51.382;7.074;2023-12-14T01:07:11;10.80;73.80
80937;DHT22;70395;51.382;7.074;2023-12-14T01:09:37;10.70;73.10
80937;DHT22;70395;51.382;7.074;2023-12-14T01:12:02;10.70;73.00
80937;DHT22;70395;51.382;7.074;2023-12-14T01:14:28;10.70;72.80
80937;DHT22;70395;51.382;7.074;2023-12-14T01:16:54;10.70;72.70
80937;DHT22;70395;51.382;7.074;2023-12-14T01:19:20;10.60;72.70
80937;DHT22;70395;51.382;7.074;2023-12-14T01:21:46;10.60;72.70
80937;DHT22;70395;51.382;7.074;2023-12-14T01:24:11;10.60;72.70
80937;DHT22;70395;51.382;7.074;2023-12-14T01:26:37;10.60;72.70
80937;DHT22;70395;51.382;7.074;2023-12-14T01:29:03;10.50;72.70
80937;DHT22;70395;51.382;7.074;2023-12-14T01:31:29;10.50;72.80
80937;DHT22;70395;51.382;7.074;2023-12-14T01:33:55;10.60;72.90
80937;DHT22;70395;51.382;7.074;2023-12-14T01:36:21;10.50;72.90
80937;DHT22;70395;51.382;7.074;2023-12-14T01:38:51;10.50;72.90
80937;DHT22;70395;51.382;7.074;2023-12-14T01:41:18;10.50;72.90
80937;DHT22;70395;51.382;7.074;2023-12-14T01:43:44;10.60;73.00
80937;DHT22;70395;51.382;7.074;2023-12-14T01:46:10;10.50;72.60
80937;DHT22;70395;51.382;7.074;2023-12-14T01:48:37;10.50;72.60
80937;DHT22;70395;51.382;7.074;2023-12-14T01:51:03;10.40;72.20
80937;DHT22;70395;51.382;7.074;2023-12-14T01:53:29;10.40;72.20
80937;DHT22;70395;51.382;7.074;2023-12-14T01:55:55;10.40;72.30
80937;DHT22;70395;51.382;7.074;2023-12-14T01:58:21;10.30;71.90
80937;DHT22;70395;51.382;7.074;2023-12-14T02:01:08;10.30;72.00
80937;DHT22;70395;51.382;7.074;2023-12-14T02:03:44;10.30;71.80
80937;DHT22;70395;51.382;7.074;2023-12-14T02:06:11;10.30;72.00
80937;DHT22;70395;51.382;7.074;2023-12-14T02:08:37;10.20;72.10
80937;DHT22;70395;51.382;7.074;2023-12-14T02:11:03;10.20;72.30
80937;DHT22;70395;51.382;7.074;2023-12-14T02:13:29;10.20;72.30
80937;DHT22;70395;51.382;7.074;2023-12-14T02:15:54;10.20;72.40
80937;DHT22;70395;51.382;7.074;2023-12-14T02:18:20;10.10;72.30
80937;DHT22;70395;51.382;7.074;2023-12-14T02:20:46;10.10;72.40
80937;DHT22;70395;51.382;7.074;2023-12-14T02:23:12;10.10;72.50
80937;DHT22;70395;51.382;7.074;2023-12-14T02:25:38;10.00;72.40
80937;DHT22;70395;51.382;7.074;2023-12-14T02:28:03;10.10;72.50
80937;DHT22;70395;51.382;7.074;2023-12-14T02:30:29;10.10;72.70
80937;DHT22;70395;51.382;7.074;2023-12-14T02:32:55;10.10;72.70
80937;DHT22;70395;51.382;7.074;2023-12-14T02:35:21;10.10;72.80
80937;DHT22;70395;51.382;7.074;2023-12-14T02:37:48;10.10;72.70
80937;DHT22;70395;51.382;7.074;2023-12-14T02:40:14;10.10;72.70
80937;DHT22;70395;51.382;7.074;2023-12-14T02:42:39;10.10;72.70
80937;DHT22;70395;51.382;7.074;2023-12-14T02:45:07;10.10;72.70
80937;DHT22;70395;51.382;7.074;2023-12-14T02:47:33;10.00;72.50
80937;DHT22;70395;51.382;7.074;2023-12-14T02:49:59;10.00;72.50
80937;DHT22;70395;51.382;7.074;2023-12-14T02:52:25;10.00;72.50
80937;DHT22;70395;51.382;7.074;2023-12-14T02:54:51;10.00;72.60
80937;DHT22;70395;51.382;7.074;2023-12-14T02:57:17;10.00;72.50
80937;DHT22;70395;51.382;7.074;2023-12-14T02:59:43;9.90;73.50
80937;DHT22;70395;51.382;7.074;2023-12-14T03:02:09;9.90;73.40
80937;DHT22;70395;51.382;7.074;2023-12-14T03:04:37;9.90;73.40
80937;DHT22;70395;51.382;7.074;2023-12-14T03:07:05;9.80;73.30
80937;DHT22;70395;51.382;7.074;2023-12-14T03:09:31;9.80;73.10
80937;DHT22;70395;51.382;7.074;2023-12-14T03:11:57;9.80;73.30
80937;DHT22;70395;51.382;7.074;2023-12-14T03:14:25;9.80;73.30
80937;DHT22;70395;51.382;7.074;2023-12-14T03:16:50;9.70;73.30
80937;DHT22;70395;51.382;7.074;2023-12-14T03:19:16;9.70;73.30
80937;DHT22;70395;51.382;7.074;2023-12-14T03:21:42;9.70;73.30
80937;DHT22;70395;51.382;7.074;2023-12-14T03:24:08;9.70;73.30
80937;DHT22;70395;51.382;7.074;2023-12-14T03:26:37;9.60;73.30
80937;DHT22;70395;51.382;7.074;2023-12-14T03:29:03;9.60;73.30
80937;DHT22;70395;51.382;7.074;2023-12-14T03:31:29;9.60;73.40
80937;DHT22;70395;51.382;7.074;2023-12-14T03:33:55;9.60;73.50
80937;DHT22;70395;51.382;7.074;2023-12-14T03:36:20;9.60;73.50
80937;DHT22;70395;51.382;7.074;2023-12-14T03:38:48;9.60;73.40
80937;DHT22;70395;51.382;7.074;2023-12-14T03:41:14;9.60;73.50
80937;DHT22;70395;51.382;7.074;2023-12-14T03:43:40;9.50;73.40
80937;DHT22;70395;51.382;7.074;2023-12-14T03:46:06;9.50;73.50
80937;DHT22;70395;51.382;7.074;2023-12-14T03:48:32;9.50;73.50
80937;DHT22;70395;51.382;7.074;2023-12-14T03:51:05;9.50;73.70
80937;DHT22;70395;51.382;7.074;2023-12-14T03:53:31;9.50;73.70
80937;DHT22;70395;51.382;7.074;2023-12-14T03:56:00;9.50;73.70
80937;DHT22;70395;51.382;7.074;2023-12-14T03:58:26;9.50;73.60
80937;DHT22;70395;51.382;7.074;2023-12-14T04:00:52;9.40;73.50
80937;DHT22;70395;51.382;7.074;2023-12-14T04:03:18;9.40;73.50
80937;DHT22;70395;51.382;7.074;2023-12-14T04:05:44;9.40;73.60
80937;DHT22;70395;51.382;7.074;2023-12-14T04:08:10;9.40;73.70
80937;DHT22;70395;51.382;7.074;2023-12-14T04:10:36;9.40;73.70
80937;DHT22;70395;51.382;7.074;2023-12-14T04:13:02;9.40;73.70
80937;DHT22;70395;51.382;7.074;2023-12-14T04:15:28;9.40;73.70
80937;DHT22;70395;51.382;7.074;2023-12-14T04:17:54;9.40;73.80
80937;DHT22;70395;51.382;7.074;2023-12-14T04:20:20;9.30;73.70
80937;DHT22;70395;51.382;7.074;2023-12-14T04:22:45;9.30;73.70
80937;DHT22;70395;51.382;7.074;2023-12-14T04:25:12;9.30;73.70
80937;DHT22;70395;51.382;7.074;2023-12-14T04:27:38;9.30;73.80
80937;DHT22;70395;51.382;7.074;2023-12-14T04:30:04;9.30;73.70
80937;DHT22;70395;51.382;7.074;2023-12-14T04:32:31;9.30;73.80
80937;DHT22;70395;51.382;7.074;2023-12-14T04:34:56;9.30;74.00
80937;DHT22;70395;51.382;7.074;2023-12-14T04:37:22;9.30;74.00
80937;DHT22;70395;51.382;7.074;2023-12-14T04:39:48;9.30;74.00
80937;DHT22;70395;51.382;7.074;2023-12-14T04:42:14;9.30;74.00
80937;DHT22;70395;51.382;7.074;2023-12-14T04:44:40;9.30;74.00
80937;DHT22;70395;51.382;7.074;2023-12-14T04:47:05;9.40;74.00
80937;DHT22;70395;51.382;7.074;2023-12-14T04:49:32;9.30;73.80
80937;DHT22;70395;51.382;7.074;2023-12-14T04:51:58;9.30;73.70
80937;DHT22;70395;51.382;7.074;2023-12-14T04:54:23;9.30;73.60
80937;DHT22;70395;51.382;7.074;2023-12-14T04:56:49;9.30;73.70
80937;DHT22;70395;51.382;7.074;2023-12-14T04:59:15;9.30;73.60
80937;DHT22;70395;51.382;7.074;2023-12-14T05:01:41;9.30;73.50
80937;DHT22;70395;51.382;7.074;2023-12-14T05:04:07;9.30;73.50
80937;DHT22;70395;51.382;7.074;2023-12-14T05:06:32;9.30;73.60
80937;DHT22;70395;51.382;7.074;2023-12-14T05:08:59;9.30;73.50
80937;DHT22;70395;51.382;7.074;2023-12-14T05:11:28;9.30;73.50
80937;DHT22;70395;51.382;7.074;2023-12-14T05:13:53;9.30;73.50
80937;DHT22;70395;51.382;7.074;2023-12-14T05:16:19;9.30;73.40
80937;DHT22;70395;51.382;7.074;2023-12-14T05:18:45;9.30;73.30
80937;DHT22;70395;51.382;7.074;2023-12-14T05:21:17;9.30;73.40
80937;DHT22;70395;51.382;7.074;2023-12-14T05:23:43;9.20;73.30
80937;DHT22;70395;51.382;7.074;2023-12-14T05:26:09;9.20;73.40
80937;DHT22;70395;51.382;7.074;2023-12-14T05:28:34;9.20;73.30
80937;DHT22;70395;51.382;7.074;2023-12-14T05:31:00;9.20;73.30
80937;DHT22;70395;51.382;7.074;2023-12-14T05:33:28;9.20;73.30
80937;DHT22;70395;51.382;7.074;2023-12-14T05:35:54;9.20;73.40
80937;DHT22;70395;51.382;7.074;2023-12-14T05:38:20;9.20;73.40
80937;DHT22;70395;51.382;7.074;2023-12-14T05:40:46;9.20;73.50
80937;DHT22;70395;51.382;7.074;2023-12-14T05:43:11;9.20;73.40
80937;DHT22;70395;51.382;7.074;2023-12-14T05:45:37;9.20;73.20
80937;DHT22;70395;51.382;7.074;2023-12-14T05:48:03;9.20;73.30
80937;DHT22;70395;51.382;7.074;2023-12-14T05:50:31;9.20;73.30
80937;DHT22;70395;51.382;7.074;2023-12-14T05:52:57;9.20;73.40
80937;DHT22;70395;51.382;7.074;2023-12-14T05:55:22;9.20;73.30
80937;DHT22;70395;51.382;7.074;2023-12-14T05:57:49;9.20;73.20
80937;DHT22;70395;51.382;7.074;2023-12-14T06:00:15;9.10;73.00
80937;DHT22;70395;51.382;7.074;2023-12-14T06:02:42;9.10;73.00
80937;DHT22;70395;51.382;7.074;2023-12-14T06:05:09;9.10;72.90
80937;DHT22;70395;51.382;7.074;2023-12-14T06:07:35;9.10;72.90
80937;DHT22;70395;51.382;7.074;2023-12-14T06:10:00;9.10;72.80
80937;DHT22;70395;51.382;7.074;2023-12-14T06:12:27;9.10;72.70
80937;DHT22;70395;51.382;7.074;2023-12-14T06:14:53;9.10;72.60
80937;DHT22;70395;51.382;7.074;2023-12-14T06:17:18;9.10;72.70
80937;DHT22;70395;51.382;7.074;2023-12-14T06:19:44;9.00;72.70
80937;DHT22;70395;51.382;7.074;2023-12-14T06:22:10;9.00;72.50
80937;DHT22;70395;51.382;7.074;2023-12-14T06:24:36;9.00;72.50
80937;DHT22;70395;51.382;7.074;2023-12-14T06:27:02;9.00;72.60
80937;DHT22;70395;51.382;7.074;2023-12-14T06:29:29;9.00;72.70
80937;DHT22;70395;51.382;7.074;2023-12-14T06:31:54;9.00;72.80
80937;DHT22;70395;51.382;7.074;2023-12-14T06:34:20;9.00;73.60
80937;DHT22;70395;51.382;7.074;2023-12-14T06:36:46;9.00;73.00
80937;DHT22;70395;51.382;7.074;2023-12-14T06:39:12;9.00;73.00
80937;DHT22;70395;51.382;7.074;2023-12-14T06:41:38;9.00;73.00
80937;DHT22;70395;51.382;7.074;2023-12-14T06:44:04;9.00;72.90
80937;DHT22;70395;51.382;7.074;2023-12-14T06:46:30;9.00;72.70
80937;DHT22;70395;51.382;7.074;2023-12-14T06:48:56;9.00;72.70
80937;DHT22;70395;51.382;7.074;2023-12-14T06:51:22;9.00;72.80
80937;DHT22;70395;51.382;7.074;2023-12-14T06:53:48;9.00;72.90
80937;DHT22;70395;51.382;7.074;2023-12-14T06:56:14;9.00;72.90
80937;DHT22;70395;51.382;7.074;2023-12-14T06:58:42;9.00;73.00
80937;DHT22;70395;51.382;7.074;2023-12-14T07:01:18;9.00;72.90
80937;DHT22;70395;51.382;7.074;2023-12-14T07:03:44;9.00;72.30
80937;DHT22;70395;51.382;7.074;2023-12-14T07:06:13;9.00;73.00
80937;DHT22;70395;51.382;7.074;2023-12-14T07:08:41;9.00;72.90
80937;DHT22;70395;51.382;7.074;2023-12-14T07:11:08;9.00;73.00
80937;DHT22;70395;51.382;7.074;2023-12-14T07:13:34;9.00;72.80
80937;DHT22;70395;51.382;7.074;2023-12-14T07:16:08;9.00;72.90
80937;DHT22;70395;51.382;7.074;2023-12-14T07:18:40;9.00;72.90
80937;DHT22;70395;51.382;7.074;2023-12-14T07:21:07;9.00;72.90
80937;DHT22;70395;51.382;7.074;2023-12-14T07:23:34;9.00;72.90
80937;DHT22;70395;51.382;7.074;2023-12-14T07:26:01;9.00;72.90
80937;DHT22;70395;51.382;7.074;2023-12-14T07:28:27;9.00;73.00
80937;DHT22;70395;51.382;7.074;2023-12-14T07:30:53;9.00;73.10
80937;DHT22;70395;51.382;7.074;2023-12-14T07:33:19;9.00;73.00
80937;DHT22;70395;51.382;7.074;2023-12-14T07:35:45;9.00;72.90
80937;DHT22;70395;51.382;7.074;2023-12-14T07:38:11;9.00;73.10
80937;DHT22;70395;51.382;7.074;2023-12-14T07:40:37;9.00;73.10
80937;DHT22;70395;51.382;7.074;2023-12-14T07:43:04;9.00;73.00
80937;DHT22;70395;51.382;7.074;2023-12-14T07:45:30;8.90;72.80
80937;DHT22;70395;51.382;7.074;2023-12-14T07:47:56;8.90;72.80
80937;DHT22;70395;51.382;7.074;2023-12-14T07:50:22;8.90;72.90
80937;DHT22;70395;51.382;7.074;2023-12-14T07:52:48;8.90;72.90
80937;DHT22;70395;51.382;7.074;2023-12-14T07:55:14;8.90;72.90
80937;DHT22;70395;51.382;7.074;2023-12-14T07:57:40;8.80;72.90
80937;DHT22;70395;51.382;7.074;2023-12-14T08:00:06;8.80;72.90
80937;DHT22;70395;51.382;7.074;2023-12-14T08:02:36;8.80;72.90
80937;DHT22;70395;51.382;7.074;2023-12-14T08:05:02;8.80;73.00
80937;DHT22;70395;51.382;7.074;2023-12-14T08:07:29;8.80;73.10
80937;DHT22;70395;51.382;7.074;2023-12-14T08:09:55;8.80;73.20
80937;DHT22;70395;51.382;7.074;2023-12-14T08:12:22;8.80;73.10
80937;DHT22;70395;51.382;7.074;2023-12-14T08:14:48;8.70;73.10
80937;DHT22;70395;51.382;7.074;2023-12-14T08:17:14;8.80;73.30
80937;DHT22;70395;51.382;7.074;2023-12-14T08:19:40;8.80;73.10
80937;DHT22;70395;51.382;7.074;2023-12-14T08:22:06;8.80;73.10
80937;DHT22;70395;51.382;7.074;2023-12-14T08:24:33;8.80;73.00
80937;DHT22;70395;51.382;7.074;2023-12-14T08:26:59;8.70;72.90
80937;DHT22;70395;51.382;7.074;2023-12-14T08:29:24;8.80;72.90
80937;DHT22;70395;51.382;7.074;2023-12-14T08:31:50;8.80;72.90
80937;DHT22;70395;51.382;7.074;2023-12-14T08:34:16;8.80;72.90
80937;DHT22;70395;51.382;7.074;2023-12-14T08:36:42;8.80;72.90
80937;DHT22;70395;51.382;7.074;2023-12-14T08:39:08;8.80;73.10
80937;DHT22;70395;51.382;7.074;2023-12-14T08:41:34;8.70;73.00
80937;DHT22;70395;51.382;7.074;2023-12-14T08:43:59;8.80;73.00
80937;DHT22;70395;51.382;7.074;2023-12-14T08:46:25;8.80;72.90
80937;DHT22;70395;51.382;7.074;2023-12-14T08:48:51;8.70;72.70
80937;DHT22;70395;51.382;7.074;2023-12-14T08:51:17;8.70;72.70
80937;DHT22;70395;51.382;7.074;2023-12-14T08:53:45;8.70;72.60
80937;DHT22;70395;51.382;7.074;2023-12-14T08:56:10;8.70;72.60
80937;DHT22;70395;51.382;7.074;2023-12-14T08:58:36;8.70;72.70
80937;DHT22;70395;51.382;7.074;2023-12-14T09:01:02;8.70;72.70
80937;DHT22;70395;51.382;7.074;2023-12-14T09:03:28;8.70;72.70
80937;DHT22;70395;51.382;7.074;2023-12-14T09:05:54;8.70;72.90
80937;DHT22;70395;51.382;7.074;2023-12-14T09:08:19;8.70;73.00
80937;DHT22;70395;51.382;7.074;2023-12-14T09:10:45;8.70;72.90
80937;DHT22;70395;51.382;7.074;2023-12-14T09:13:11;8.70;72.90
80937;DHT22;70395;51.382;7.074;2023-12-14T09:15:37;8.70;72.90
80937;DHT22;70395;51.382;7.074;2023-12-14T09:18:03;8.70;72.90
80937;DHT22;70395;51.382;7.074;2023-12-14T09:20:29;8.70;72.80
80937;DHT22;70395;51.382;7.074;2023-12-14T09:22:55;8.70;72.90
80937;DHT22;70395;51.382;7.074;2023-12-14T09:25:20;8.80;73.00
80937;DHT22;70395;51.382;7.074;2023-12-14T09:27:46;8.80;72.90
80937;DHT22;70395;51.382;7.074;2023-12-14T09:30:13;8.70;72.70
80937;DHT22;70395;51.382;7.074;2023-12-14T09:32:38;8.80;72.60
80937;DHT22;70395;51.382;7.074;2023-12-14T09:35:06;8.80;72.70
80937;DHT22;70395;51.382;7.074;2023-12-14T09:37:32;8.80;72.70
80937;DHT22;70395;51.382;7.074;2023-12-14T09:39:58;8.90;72.80
80937;DHT22;70395;51.382;7.074;2023-12-14T09:42:23;8.80;72.60
80937;DHT22;70395;51.382;7.074;2023-12-14T09:44:51;8.80;72.60
80937;DHT22;70395;51.382;7.074;2023-12-14T09:47:18;8.80;72.60
80937;DHT22;70395;51.382;7.074;2023-12-14T09:49:45;8.80;72.60
80937;DHT22;70395;51.382;7.074;2023-12-14T09:52:12;8.80;72.60
80937;DHT22;70395;51.382;7.074;2023-12-14T09:54:40;8.80;72.70
80937;DHT22;70395;51.382;7.074;2023-12-14T09:57:06;8.80;72.80
80937;DHT22;70395;51.382;7.074;2023-12-14T09:59:32;8.80;72.90
80937;DHT22;70395;51.382;7.074;2023-12-14T10:02:13;8.90;72.90
80937;DHT22;70395;51.382;7.074;2023-12-14T10:04:39;8.90;72.70
80937;DHT22;70395;51.382;7.074;2023-12-14T10:07:05;8.90;72.80
80937;DHT22;70395;51.382;7.074;2023-12-14T10:09:37;8.90;72.70
80937;DHT22;70395;51.382;7.074;2023-12-14T10:12:08;8.90;72.40
80937;DHT22;70395;51.382;7.074;2023-12-14T10:14:36;8.90;72.20
80937;DHT22;70395;51.382;7.074;2023-12-14T10:17:18;8.90;72.20
80937;DHT22;70395;51.382;7.074;2023-12-14T10:19:46;8.90;71.70
80937;DHT22;70395;51.382;7.074;2023-12-14T10:22:16;8.90;71.90
80937;DHT22;70395;51.382;7.074;2023-12-14T10:24:52;8.90;71.90
80937;DHT22;70395;51.382;7.074;2023-12-14T10:27:17;8.90;71.50
80937;DHT22;70395;51.382;7.074;2023-12-14T10:29:44;8.90;71.80
80937;DHT22;70395;51.382;7.074;2023-12-14T10:32:11;8.90;71.80
80937;DHT22;70395;51.382;7.074;2023-12-14T10:34:37;8.90;71.80
80937;DHT22;70395;51.382;7.074;2023-12-14T10:37:05;8.90;71.90
80937;DHT22;70395;51.382;7.074;2023-12-14T10:39:35;8.80;71.70
80937;DHT22;70395;51.382;7.074;2023-12-14T10:42:08;8.80;71.40
80937;DHT22;70395;51.382;7.074;2023-12-14T10:44:36;8.80;71.40
80937;DHT22;70395;51.382;7.074;2023-12-14T10:47:03;8.80;71.50
80937;DHT22;70395;51.382;7.074;2023-12-14T10:49:32;8.80;71.70
80937;DHT22;70395;51.382;7.074;2023-12-14T10:52:01;8.80;72.50
80937;DHT22;70395;51.382;7.074;2023-12-14T10:54:32;8.70;71.60
80937;DHT22;70395;51.382;7.074;2023-12-14T10:57:01;8.80;71.70
80937;DHT22;70395;51.382;7.074;2023-12-14T10:59:30;8.80;71.90
80937;DHT22;70395;51.382;7.074;2023-12-14T11:01:56;8.80;71.90
80937;DHT22;70395;51.382;7.074;2023-12-14T11:04:25;8.70;71.90
80937;DHT22;70395;51.382;7.074;2023-12-14T11:06:53;8.80;72.00
80937;DHT22;70395;51.382;7.074;2023-12-14T11:09:22;8.80;72.00
80937;DHT22;70395;51.382;7.074;2023-12-14T11:14:19;8.80;72.00
80937;DHT22;70395;51.382;7.074;2023-12-14T11:16:48;8.80;72.00
80937;DHT22;70395;51.382;7.074;2023-12-14T11:19:24;8.80;71.80
80937;DHT22;70395;51.382;7.074;2023-12-14T11:24:23;8.90;71.80
80937;DHT22;70395;51.382;7.074;2023-12-14T11:26:53;8.90;71.90
80937;DHT22;70395;51.382;7.074;2023-12-14T11:29:19;8.90;71.60
80937;DHT22;70395;51.382;7.074;2023-12-14T11:31:47;8.90;71.80
80937;DHT22;70395;51.382;7.074;2023-12-14T11:34:15;8.90;72.00
80937;DHT22;70395;51.382;7.074;2023-12-14T11:36:41;8.90;71.60
80937;DHT22;70395;51.382;7.074;2023-12-14T11:39:10;8.90;71.90
80937;DHT22;70395;51.382;7.074;2023-12-14T11:41:36;9.00;71.90
80937;DHT22;70395;51.382;7.074;2023-12-14T11:44:04;9.00;71.80
80937;DHT22;70395;51.382;7.074;2023-12-14T11:46:30;9.00;71.80
80937;DHT22;70395;51.382;7.074;2023-12-14T11:48:58;9.00;71.60
80937;DHT22;70395;51.382;7.074;2023-12-14T11:51:24;9.00;71.40
80937;DHT22;70395;51.382;7.074;2023-12-14T11:53:51;9.00;71.40
80937;DHT22;70395;51.382;7.074;2023-12-14T11:56:18;9.00;71.60
80937;DHT22;70395;51.382;7.074;2023-12-14T11:58:45;9.00;71.70
80937;DHT22;70395;51.382;7.074;2023-12-14T12:01:16;9.00;71.80
80937;DHT22;70395;51.382;7.074;2023-12-14T12:03:44;9.00;71.60
80937;DHT22;70395;51.382;7.074;2023-12-14T12:06:25;9.00;71.50
80937;DHT22;70395;51.382;7.074;2023-12-14T12:08:54;9.00;71.50
80937;DHT22;70395;51.382;7.074;2023-12-14T12:11:21;9.00;71.50
80937;DHT22;70395;51.382;7.074;2023-12-14T12:13:56;8.90;71.30
80937;DHT22;70395;51.382;7.074;2023-12-14T12:16:22;8.90;71.10
80937;DHT22;70395;51.382;7.074;2023-12-14T12:18:49;8.90;71.40
80937;DHT22;70395;51.382;7.074;2023-12-14T12:21:16;8.90;71.60
80937;DHT22;70395;51.382;7.074;2023-12-14T12:23:42;8.90;71.50
80937;DHT22;70395;51.382;7.074;2023-12-14T12:26:08;8.90;71.40
80937;DHT22;70395;51.382;7.074;2023-12-14T12:28:34;8.90;71.50
80937;DHT22;70395;51.382;7.074;2023-12-14T12:31:00;8.80;71.20
80937;DHT22;70395;51.382;7.074;2023-12-14T12:33:26;8.80;71.20
80937;DHT22;70395;51.382;7.074;2023-12-14T12:35:52;8.80;71.30
80937;DHT22;70395;51.382;7.074;2023-12-14T12:38:20;8.80;71.40
80937;DHT22;70395;51.382;7.074;2023-12-14T12:40:46;8.80;71.60
80937;DHT22;70395;51.382;7.074;2023-12-14T12:43:13;8.90;71.60
80937;DHT22;70395;51.382;7.074;2023-12-14T12:45:39;8.80;71.40
80937;DHT22;70395;51.382;7.074;2023-12-14T12:48:06;8.80;71.50
80937;DHT22;70395;51.382;7.074;2023-12-14T12:50:33;8.80;71.50
80937;DHT22;70395;51.382;7.074;2023-12-14T12:52:59;8.80;71.40
80937;DHT22;70395;51.382;7.074;2023-12-14T12:55:24;8.80;71.40
80937;DHT22;70395;51.382;7.074;2023-12-14T12:57:50;8.70;71.50
80937;DHT22;70395;51.382;7.074;2023-12-14T13:00:16;8.70;71.60
80937;DHT22;70395;51.382;7.074;2023-12-14T13:02:43;8.80;71.40
80937;DHT22;70395;51.382;7.074;2023-12-14T13:05:11;8.70;71.00
80937;DHT22;70395;51.382;7.074;2023-12-14T13:07:37;8.70;71.10
80937;DHT22;70395;51.382;7.074;2023-12-14T13:10:04;8.70;71.10
80937;DHT22;70395;51.382;7.074;2023-12-14T13:12:32;8.70;71.10
80937;DHT22;70395;51.382;7.074;2023-12-14T13:14:59;8.70;71.40
80937;DHT22;70395;51.382;7.074;2023-12-14T13:17:25;8.70;71.40
80937;DHT22;70395;51.382;7.074;2023-12-14T13:19:52;8.60;71.40
80937;DHT22;70395;51.382;7.074;2023-12-14T13:22:18;8.60;71.50
80937;DHT22;70395;51.382;7.074;2023-12-14T13:24:45;8.60;71.60
80937;DHT22;70395;51.382;7.074;2023-12-14T13:27:12;8.60;71.50
80937;DHT22;70395;51.382;7.074;2023-12-14T13:29:39;8.60;71.50
80937;DHT22;70395;51.382;7.074;2023-12-14T13:32:06;8.60;71.50
80937;DHT22;70395;51.382;7.074;2023-12-14T13:34:32;8.60;71.60
80937;DHT22;70395;51.382;7.074;2023-12-14T13:36:58;8.60;71.60
80937;DHT22;70395;51.382;7.074;2023-12-14T13:39:26;8.60;71.50
80937;DHT22;70395;51.382;7.074;2023-12-14T13:41:53;8.60;71.50
80937;DHT22;70395;51.382;7.074;2023-12-14T13:44:19;8.60;71.20
80937;DHT22;70395;51.382;7.074;2023-12-14T13:46:44;8.60;70.80
80937;DHT22;70395;51.382;7.074;2023-12-14T13:49:10;8.60;70.90
80937;DHT22;70395;51.382;7.074;2023-12-14T13:51:36;8.50;70.50
80937;DHT22;70395;51.382;7.074;2023-12-14T13:54:02;8.50;70.90
80937;DHT22;70395;51.382;7.074;2023-12-14T13:56:28;8.50;70.70
80937;DHT22;70395;51.382;7.074;2023-12-14T13:58:54;8.50;70.90
80937;DHT22;70395;51.382;7.074;2023-12-14T14:01:19;8.40;71.10
80937;DHT22;70395;51.382;7.074;2023-12-14T14:03:45;8.50;71.30
80937;DHT22;70395;51.382;7.074;2023-12-14T14:06:12;8.40;71.40
80937;DHT22;70395;51.382;7.074;2023-12-14T14:08:38;8.40;71.20
80937;DHT22;70395;51.382;7.074;2023-12-14T14:11:04;8.40;71.20
80937;DHT22;70395;51.382;7.074;2023-12-14T14:13:31;8.40;71.10
80937;DHT22;70395;51.382;7.074;2023-12-14T14:15:58;8.40;71.10
80937;DHT22;70395;51.382;7.074;2023-12-14T14:18:24;8.40;71.20
80937;DHT22;70395;51.382;7.074;2023-12-14T14:20:49;8.40;71.30
80937;DHT22;70395;51.382;7.074;2023-12-14T14:23:16;8.40;71.20
80937;DHT22;70395;51.382;7.074;2023-12-14T14:25:42;8.40;71.10
80937;DHT22;70395;51.382;7.074;2023-12-14T14:28:08;8.30;71.00
80937;DHT22;70395;51.382;7.074;2023-12-14T14:30:33;8.30;71.10
80937;DHT22;70395;51.382;7.074;2023-12-14T14:32:59;8.30;71.30
80937;DHT22;70395;51.382;7.074;2023-12-14T14:35:25;8.40;71.50
80937;DHT22;70395;51.382;7.074;2023-12-14T14:37:51;8.30;71.40
80937;DHT22;70395;51.382;7.074;2023-12-14T14:40:17;8.30;71.20
80937;DHT22;70395;51.382;7.074;2023-12-14T14:42:43;8.30;71.20
80937;DHT22;70395;51.382;7.074;2023-12-14T14:45:10;8.30;71.20
80937;DHT22;70395;51.382;7.074;2023-12-14T14:47:37;8.30;71.10
80937;DHT22;70395;51.382;7.074;2023-12-14T14:50:04;8.30;71.20
80937;DHT22;70395;51.382;7.074;2023-12-14T14:52:32;8.30;71.20
80937;DHT22;70395;51.382;7.074;2023-12-14T14:54:59;8.30;71.20
80937;DHT22;70395;51.382;7.074;2023-12-14T14:57:26;8.30;71.20
80937;DHT22;70395;51.382;7.074;2023-12-14T14:59:52;8.20;71.20
80937;DHT22;70395;51.382;7.074;2023-12-14T15:02:19;8.30;71.30
80937;DHT22;70395;51.382;7.074;2023-12-14T15:04:45;8.20;71.20
80937;DHT22;70395;51.382;7.074;2023-12-14T15:07:11;8.20;71.30
80937;DHT22;70395;51.382;7.074;2023-12-14T15:09:36;8.30;71.40
80937;DHT22;70395;51.382;7.074;2023-12-14T15:12:02;8.20;71.40
80937;DHT22;70395;51.382;7.074;2023-12-14T15:14:28;8.20;71.20
80937;DHT22;70395;51.382;7.074;2023-12-14T15:16:54;8.10;70.70
80937;DHT22;70395;51.382;7.074;2023-12-14T15:19:20;8.10;70.60
80937;DHT22;70395;51.382;7.074;2023-12-14T15:21:46;8.10;70.50
80937;DHT22;70395;51.382;7.074;2023-12-14T15:24:12;8.10;70.40
80937;DHT22;70395;51.382;7.074;2023-12-14T15:26:40;8.10;70.70
80937;DHT22;70395;51.382;7.074;2023-12-14T15:29:06;8.00;70.70
80937;DHT22;70395;51.382;7.074;2023-12-14T15:31:32;8.00;70.70
80937;DHT22;70395;51.382;7.074;2023-12-14T15:33:58;8.10;70.70
80937;DHT22;70395;51.382;7.074;2023-12-14T15:36:27;8.00;70.50
80937;DHT22;70395;51.382;7.074;2023-12-14T15:38:53;7.90;70.20
80937;DHT22;70395;51.382;7.074;2023-12-14T15:41:18;7.90;70.40
80937;DHT22;70395;51.382;7.074;2023-12-14T15:43:45;7.90;70.50